Time;durP1;ratioP1;P1;durP2;ratioP2;P2;SDS_P1;SDS_P2;PMS_P1;PMS_P2;Temp;Humidity;BMP_temperature;BMP_pressure;BME280_temperature;BME280_humidity;BME280_pressure;Samples;Min_cycle;Max_cycle;Signal;HPM_P1;HPM_P2
2024/01/06 00:00:43;;;;;;;20.27;16.45;;;;;;;6.41;100.00;100265.88;5017984;28;20034;-61
2024/01/06 00:03:08;;;;;;;21.85;16.55;;;;;;;6.41;100.00;100274.66;5016949;28;20029;-60
2024/01/06 00:05:33;;;;;;;21.60;16.75;;;;;;;6.39;100.00;100276.53;5016614;28;20057;-59
2024/01/06 00:07:58;;;;;;;24.55;16.50;;;;;;;6.38;100.00;100280.16;5018889;28;20034;-60
2024/01/06 00:10:24;;;;;;;20.38;15.60;;;;;;;6.38;100.00;100285.41;5016577;28;20425;-60
2024/01/06 00:12:49;;;;;;;18.17;14.52;;;;;;;6.36;100.00;100289.97;5020558;28;20029;-60
2024/01/06 00:15:14;;;;;;;18.70;14.75;;;;;;;6.33;100.00;100295.44;5019241;28;20470;-60
2024/01/06 00:17:39;;;;;;;17.88;14.18;;;;;;;6.32;100.00;100301.66;5019907;28;20045;-61
2024/01/06 00:20:06;;;;;;;19.25;14.90;;;;;;;6.27;100.00;100303.75;5021769;28;20041;-61
2024/01/06 00:22:31;;;;;;;19.98;15.65;;;;;;;6.27;100.00;100309.88;5019927;28;20419;-61
2024/01/06 00:24:56;;;;;;;19.77;16.40;;;;;;;6.25;100.00;100306.50;5019612;28;20030;-60
2024/01/06 00:27:22;;;;;;;19.48;16.35;;;;;;;6.23;100.00;100308.41;5019957;28;20107;-61
2024/01/06 00:29:47;;;;;;;19.60;16.00;;;;;;;6.22;100.00;100311.97;5017731;28;20030;-61
2024/01/06 00:32:12;;;;;;;21.67;16.17;;;;;;;6.22;100.00;100308.50;5021273;28;20382;-61
2024/01/06 00:34:38;;;;;;;21.95;17.38;;;;;;;6.20;100.00;100320.94;5021469;28;20030;-60
2024/01/06 00:37:03;;;;;;;21.67;18.48;;;;;;;6.17;100.00;100318.50;5024197;28;20037;-61
2024/01/06 00:39:28;;;;;;;22.08;18.20;;;;;;;6.13;100.00;100319.66;5018394;28;20049;-61
2024/01/06 00:41:54;;;;;;;22.38;18.45;;;;;;;6.09;100.00;100322.47;5023335;28;20041;-60
2024/01/06 00:44:19;;;;;;;22.83;18.80;;;;;;;6.07;100.00;100328.81;5025152;28;20037;-61
2024/01/06 00:46:45;;;;;;;25.77;19.65;;;;;;;6.03;100.00;100322.03;5022796;28;20040;-61
2024/01/06 00:49:10;;;;;;;26.70;19.77;;;;;;;6.00;100.00;100315.19;5020220;28;20475;-61
2024/01/06 00:51:35;;;;;;;25.42;20.48;;;;;;;5.96;100.00;100321.59;5024246;28;20104;-61
2024/01/06 00:54:01;;;;;;;24.40;19.38;;;;;;;5.91;100.00;100318.41;5023889;28;20025;-61
2024/01/06 00:56:27;;;;;;;24.65;19.05;;;;;;;5.87;100.00;100324.81;5017099;28;20432;-61
2024/01/06 00:58:53;;;;;;;27.85;19.98;;;;;;;5.87;100.00;100322.19;5026787;28;20462;-60
2024/01/06 01:01:18;;;;;;;23.73;18.45;;;;;;;5.84;100.00;100317.94;5021204;28;20055;-60
2024/01/06 01:03:43;;;;;;;23.77;18.55;;;;;;;5.84;100.00;100323.22;5021010;28;20044;-62
2024/01/06 01:06:08;;;;;;;24.38;18.85;;;;;;;5.82;100.00;100335.66;5025682;28;20478;-61
2024/01/06 01:08:34;;;;;;;25.33;18.65;;;;;;;5.79;100.00;100337.66;5021286;28;20053;-60
2024/01/06 01:10:59;;;;;;;25.67;19.35;;;;;;;5.76;100.00;100338.69;5020822;28;20032;-60
2024/01/06 01:13:24;;;;;;;25.00;19.25;;;;;;;5.77;100.00;100340.38;5022126;28;20570;-60
2024/01/06 01:15:50;;;;;;;26.30;19.15;;;;;;;5.73;100.00;100337.09;5021825;28;20134;-61
2024/01/06 01:18:15;;;;;;;23.98;18.45;;;;;;;5.75;100.00;100337.84;5021510;28;20033;-60
2024/01/06 01:20:43;;;;;;;23.92;19.33;;;;;;;5.73;100.00;100342.38;5022259;28;20546;-61
2024/01/06 01:23:08;;;;;;;22.80;17.67;;;;;;;5.70;100.00;100349.66;5024913;28;20402;-61
2024/01/06 01:25:33;;;;;;;24.92;18.25;;;;;;;5.69;100.00;100343.50;5023561;28;20048;-61
2024/01/06 01:27:59;;;;;;;25.27;19.20;;;;;;;5.66;100.00;100350.75;5022352;28;20523;-61
2024/01/06 01:30:25;;;;;;;21.83;18.02;;;;;;;5.64;100.00;100356.13;5016636;28;20506;-61
2024/01/06 01:32:50;;;;;;;23.92;17.90;;;;;;;5.65;100.00;100357.84;5021535;28;20065;-61
2024/01/06 01:35:15;;;;;;;22.90;18.45;;;;;;;5.65;100.00;100373.66;5019082;28;20030;-59
2024/01/06 01:37:40;;;;;;;24.75;18.65;;;;;;;5.63;100.00;100372.03;5022551;28;20035;-60
2024/01/06 01:40:06;;;;;;;23.15;18.35;;;;;;;5.62;100.00;100368.56;5018977;28;20044;-60
2024/01/06 01:42:32;;;;;;;23.92;18.83;;;;;;;5.60;100.00;100381.00;5021452;28;20030;-60
2024/01/06 01:44:58;;;;;;;21.73;18.10;;;;;;;5.61;100.00;100379.19;5025153;28;20040;-60
2024/01/06 01:47:23;;;;;;;23.85;18.13;;;;;;;5.60;100.00;100386.25;5020712;28;20017;-60
2024/01/06 01:49:49;;;;;;;21.70;17.52;;;;;;;5.61;100.00;100381.84;5025250;28;20502;-60
2024/01/06 01:52:15;;;;;;;22.23;17.42;;;;;;;5.60;100.00;100382.78;5017475;28;20147;-61
2024/01/06 01:54:42;;;;;;;22.83;17.38;;;;;;;5.59;100.00;100381.09;5017355;28;20053;-61
2024/01/06 01:57:07;;;;;;;20.67;16.50;;;;;;;5.56;100.00;100387.38;5019501;28;20034;-59
2024/01/06 01:59:33;;;;;;;21.42;16.55;;;;;;;5.54;100.00;100398.00;5022243;28;20040;-61
2024/01/06 02:01:59;;;;;;;21.00;17.17;;;;;;;5.54;100.00;100394.53;5021353;28;20060;-61
2024/01/06 02:04:24;;;;;;;21.92;17.58;;;;;;;5.52;100.00;100396.44;5020588;28;20029;-61
2024/01/06 02:06:50;;;;;;;19.13;15.65;;;;;;;5.52;100.00;100393.81;5022022;28;20037;-61
2024/01/06 02:09:15;;;;;;;19.55;15.60;;;;;;;5.48;100.00;100393.16;5019579;28;20521;-61
2024/01/06 02:11:40;;;;;;;19.77;15.82;;;;;;;5.45;100.00;100395.97;5022173;28;20021;-61
2024/01/06 02:14:06;;;;;;;19.88;15.68;;;;;;;5.46;100.00;100400.31;5022744;28;20424;-61
2024/01/06 02:16:31;;;;;;;19.35;15.35;;;;;;;5.44;100.00;100399.53;5023731;28;20033;-61
2024/01/06 02:18:58;;;;;;;17.27;14.88;;;;;;;5.44;100.00;100407.44;5019987;28;20025;-60
2024/01/06 02:21:23;;;;;;;20.42;15.68;;;;;;;5.42;100.00;100411.13;5021776;28;20041;-60
2024/01/06 02:23:49;;;;;;;16.90;14.68;;;;;;;5.42;100.00;100416.41;5022387;28;20052;-60
2024/01/06 02:26:14;;;;;;;17.52;14.50;;;;;;;5.40;100.00;100428.81;5021113;28;20386;-60
2024/01/06 02:28:40;;;;;;;17.40;14.55;;;;;;;5.37;100.00;100429.84;5020724;28;20498;-61
2024/01/06 02:31:05;;;;;;;16.42;14.27;;;;;;;5.33;100.00;100430.97;5020137;28;20028;-61
2024/01/06 02:33:31;;;;;;;15.85;12.93;;;;;;;5.30;100.00;100436.44;5017492;28;20072;-61
2024/01/06 02:35:56;;;;;;;14.73;13.02;;;;;;;5.24;100.00;100440.25;5021299;28;20092;-61
2024/01/06 02:38:21;;;;;;;14.00;11.98;;;;;;;5.22;100.00;100442.16;5022541;28;20056;-60
2024/01/06 02:40:47;;;;;;;14.25;12.27;;;;;;;5.17;100.00;100445.06;5020974;28;20021;-60
2024/01/06 02:43:12;;;;;;;13.55;10.88;;;;;;;5.13;100.00;100446.19;5020232;28;20060;-61
2024/01/06 02:45:37;;;;;;;11.98;10.52;;;;;;;5.13;100.00;100454.09;5012348;28;20053;-61
2024/01/06 02:48:03;;;;;;;13.82;10.25;;;;;;;5.12;100.00;100452.38;5019302;28;20026;-61
2024/01/06 02:50:28;;;;;;;11.43;10.30;;;;;;;5.10;100.00;100459.53;5020933;28;20049;-60
2024/01/06 02:52:53;;;;;;;11.35;10.15;;;;;;;5.09;100.00;100463.09;5020933;28;20030;-61
2024/01/06 02:55:19;;;;;;;12.18;10.93;;;;;;;5.07;100.00;100464.97;5019700;28;20033;-60
2024/01/06 02:57:44;;;;;;;12.98;10.95;;;;;;;5.05;100.00;100469.50;5020352;28;20030;-60
2024/01/06 03:00:10;;;;;;;12.40;10.77;;;;;;;5.05;100.00;100482.66;5019618;28;20029;-61
2024/01/06 03:02:36;;;;;;;13.10;11.20;;;;;;;5.07;100.00;100482.56;5016630;28;20048;-61
2024/01/06 03:05:02;;;;;;;13.50;11.00;;;;;;;5.06;100.00;100484.34;5020817;28;20025;-62
2024/01/06 03:07:27;;;;;;;12.38;10.85;;;;;;;5.08;100.00;100492.13;5020280;28;20066;-61
2024/01/06 03:09:52;;;;;;;12.55;11.00;;;;;;;5.09;100.00;100499.13;5019774;28;20025;-61
2024/01/06 03:12:17;;;;;;;11.82;10.30;;;;;;;5.09;100.00;100507.00;5022517;28;20030;-61
2024/01/06 03:14:43;;;;;;;12.32;10.60;;;;;;;5.06;100.00;100508.03;5021220;28;20040;-61
2024/01/06 03:17:10;;;;;;;11.43;10.23;;;;;;;5.04;100.00;100511.69;5021900;28;20025;-61
2024/01/06 03:19:36;;;;;;;11.15;10.00;;;;;;;5.02;100.00;100514.44;5017873;28;20025;-62
2024/01/06 03:22:01;;;;;;;12.20;9.93;;;;;;;4.99;100.00;100511.97;5023020;28;20383;-61
2024/01/06 03:24:27;;;;;;;11.43;10.00;;;;;;;5.01;100.00;100517.97;5021857;28;20044;-61
2024/01/06 03:26:52;;;;;;;12.25;9.73;;;;;;;5.00;100.00;100522.41;5022320;28;20084;-61
2024/01/06 03:29:17;;;;;;;11.35;9.35;;;;;;;5.01;100.00;100525.88;5019607;28;20037;-60
2024/01/06 03:31:44;;;;;;;10.25;9.10;;;;;;;4.99;100.00;100527.75;5018497;28;20032;-61
2024/01/06 03:34:11;;;;;;;10.63;9.52;;;;;;;4.97;100.00;100527.84;5019750;28;20037;-61
2024/01/06 03:36:37;;;;;;;10.77;9.60;;;;;;;4.97;100.00;100535.75;5021745;28;20466;-61
2024/01/06 03:39:02;;;;;;;10.18;9.18;;;;;;;4.98;100.00;100529.56;5020873;28;20030;-61
2024/01/06 03:41:27;;;;;;;10.38;9.23;;;;;;;4.99;100.00;100538.28;5021122;28;20133;-61
2024/01/06 03:43:53;;;;;;;10.65;9.55;;;;;;;4.96;100.00;100544.59;5017376;28;20095;-60
2024/01/06 03:46:18;;;;;;;10.13;8.93;;;;;;;4.94;100.00;100543.81;5019663;28;20522;-61
2024/01/06 03:48:43;;;;;;;11.77;8.80;;;;;;;4.94;100.00;100545.59;5017848;28;20090;-61
2024/01/06 03:51:09;;;;;;;9.13;8.23;;;;;;;4.93;100.00;100549.16;5019289;28;20479;-60
2024/01/06 03:53:34;;;;;;;9.57;8.68;;;;;;;4.89;100.00;100553.75;5016663;28;20375;-60
2024/01/06 03:56:00;;;;;;;10.98;8.07;;;;;;;4.90;100.00;100549.38;5021240;28;20033;-61
2024/01/06 03:58:25;;;;;;;8.63;7.65;;;;;;;4.84;100.00;100550.53;5025041;28;20057;-59
2024/01/06 04:00:51;;;;;;;9.02;7.70;;;;;;;4.82;100.00;100552.44;5017638;28;20068;-60
2024/01/06 04:03:16;;;;;;;7.95;7.20;;;;;;;4.82;100.00;100552.44;5017937;28;20037;-59
2024/01/06 04:05:41;;;;;;;10.35;8.00;;;;;;;4.82;100.00;100557.69;5019764;28;20055;-60
2024/01/06 04:08:07;;;;;;;8.73;7.88;;;;;;;4.82;100.00;100570.84;5012211;28;20025;-59
2024/01/06 04:10:32;;;;;;;9.35;8.40;;;;;;;4.84;100.00;100566.34;5020268;28;20061;-60
2024/01/06 04:12:58;;;;;;;8.80;7.90;;;;;;;4.85;100.00;100568.03;5021066;28;20100;-60
2024/01/06 04:15:23;;;;;;;9.15;7.93;;;;;;;4.85;100.00;100562.78;5016892;28;20382;-58
2024/01/06 04:17:49;;;;;;;9.32;8.40;;;;;;;4.85;100.00;100572.47;5017305;28;20108;-60
2024/01/06 04:20:14;;;;;;;8.77;7.88;;;;;;;4.82;100.00;100573.47;5020492;28;20029;-60
2024/01/06 04:22:39;;;;;;;9.60;8.63;;;;;;;4.79;100.00;100573.66;5021349;28;20021;-60
2024/01/06 04:25:05;;;;;;;9.55;8.48;;;;;;;4.79;100.00;100573.66;5019356;28;20034;-61
2024/01/06 04:27:31;;;;;;;8.93;7.97;;;;;;;4.80;100.00;100577.97;5017543;28;20026;-61
2024/01/06 04:29:56;;;;;;;8.43;7.63;;;;;;;4.78;100.00;100580.69;5019012;28;20118;-61
2024/01/06 04:32:21;;;;;;;9.30;7.75;;;;;;;4.79;100.00;100592.91;5015622;28;20125;-61
2024/01/06 04:34:46;;;;;;;8.05;7.25;;;;;;;4.79;100.00;100592.06;5018935;28;20387;-61
2024/01/06 04:37:12;;;;;;;9.43;8.40;;;;;;;4.79;100.00;100589.44;5018316;28;20022;-61
2024/01/06 04:39:38;;;;;;;10.13;7.85;;;;;;;4.78;100.00;100592.97;5017073;28;20115;-61
2024/01/06 04:42:04;;;;;;;8.75;7.82;;;;;;;4.79;100.00;100592.91;5017629;28;20025;-61
2024/01/06 04:44:29;;;;;;;9.55;8.40;;;;;;;4.81;100.00;100603.34;5019484;28;20065;-61
2024/01/06 04:46:54;;;;;;;7.45;6.70;;;;;;;4.81;100.00;100600.72;5015806;28;20044;-61
2024/01/06 04:49:19;;;;;;;8.00;6.40;;;;;;;4.80;100.00;100607.75;5019977;28;20049;-61
2024/01/06 04:51:45;;;;;;;7.32;6.70;;;;;;;4.80;100.00;100612.19;5018164;28;20502;-60
2024/01/06 04:54:10;;;;;;;7.80;7.05;;;;;;;4.81;100.00;100604.22;5020478;28;20041;-61
2024/01/06 04:56:35;;;;;;;7.05;6.00;;;;;;;4.79;100.00;100618.38;5016453;28;20387;-62
2024/01/06 04:59:01;;;;;;;7.68;6.90;;;;;;;4.75;100.00;100620.34;5020516;28;20032;-61
2024/01/06 05:01:26;;;;;;;8.05;7.25;;;;;;;4.70;100.00;100624.16;5017214;28;20545;-61
2024/01/06 05:03:51;;;;;;;7.53;6.80;;;;;;;4.67;100.00;100622.53;5019830;28;20044;-61
2024/01/06 05:06:16;;;;;;;7.82;7.07;;;;;;;4.67;100.00;100621.69;5020018;28;20899;-59
2024/01/06 05:08:44;;;;;;;9.30;7.30;;;;;;;4.66;100.00;100625.25;5020101;28;20064;-61
2024/01/06 05:11:10;;;;;;;9.15;7.10;;;;;;;4.64;100.00;100634.06;5019700;28;20036;-61
2024/01/06 05:13:35;;;;;;;7.15;6.47;;;;;;;4.61;100.00;100642.16;5021146;28;20026;-61
2024/01/06 05:16:01;;;;;;;6.82;6.22;;;;;;;4.58;100.00;100644.94;5013462;28;20029;-60
2024/01/06 05:18:26;;;;;;;6.88;6.28;;;;;;;4.56;100.00;100644.19;5021353;28;20467;-60
2024/01/06 05:20:52;;;;;;;6.15;5.40;;;;;;;4.52;100.00;100645.28;5020209;28;20030;-61
2024/01/06 05:23:17;;;;;;;5.93;5.43;;;;;;;4.49;100.00;100639.34;5020423;28;20029;-60
2024/01/06 05:25:42;;;;;;;5.45;4.95;;;;;;;4.45;100.00;100649.19;5018270;28;20125;-61
2024/01/06 05:28:07;;;;;;;5.90;5.30;;;;;;;4.43;100.00;100649.25;5016442;28;20030;-60
2024/01/06 05:30:33;;;;;;;5.80;5.30;;;;;;;4.41;100.00;100651.13;5023533;28;20026;-61
2024/01/06 05:32:58;;;;;;;6.03;5.53;;;;;;;4.41;100.00;100652.88;5022960;28;20120;-61
2024/01/06 05:35:23;;;;;;;5.80;5.30;;;;;;;4.40;100.00;100654.69;5019633;28;20606;-60
2024/01/06 05:37:48;;;;;;;6.95;6.25;;;;;;;4.39;100.00;100654.75;5016560;28;20037;-60
2024/01/06 05:40:14;;;;;;;6.45;4.95;;;;;;;4.38;100.00;100659.19;5020463;28;20505;-60
2024/01/06 05:42:39;;;;;;;5.43;5.03;;;;;;;4.37;100.00;100667.16;5020942;28;20044;-60
2024/01/06 05:45:05;;;;;;;5.15;4.65;;;;;;;4.36;100.00;100668.91;5017338;28;20100;-60
2024/01/06 05:47:30;;;;;;;5.28;4.78;;;;;;;4.34;100.00;100668.16;5018754;28;20386;-60
2024/01/06 05:49:56;;;;;;;5.68;5.18;;;;;;;4.32;100.00;100667.38;5020424;28;20054;-60
2024/01/06 05:52:21;;;;;;;5.90;5.35;;;;;;;4.31;100.00;100677.97;5022425;28;20044;-60
2024/01/06 05:54:46;;;;;;;6.05;5.50;;;;;;;4.29;100.00;100680.69;5017450;28;20148;-60
2024/01/06 05:57:11;;;;;;;5.95;5.45;;;;;;;4.29;100.00;100693.84;5017366;28;20026;-60
2024/01/06 05:59:37;;;;;;;6.15;5.60;;;;;;;4.26;100.00;100679.09;5020854;28;20034;-60
2024/01/06 06:02:02;;;;;;;6.45;5.85;;;;;;;4.24;100.00;100683.56;5022059;28;20111;-61
2024/01/06 06:04:27;;;;;;;6.95;6.32;;;;;;;4.23;100.00;100688.91;5018205;28;20042;-60
2024/01/06 06:06:53;;;;;;;5.93;5.38;;;;;;;4.22;100.00;100692.47;5021559;28;20429;-60
2024/01/06 06:09:20;;;;;;;6.45;5.85;;;;;;;4.19;100.00;100693.47;5018599;28;20034;-60
2024/01/06 06:11:45;;;;;;;6.95;6.03;;;;;;;4.20;100.00;100707.47;5018969;28;20037;-61
2024/01/06 06:14:11;;;;;;;6.43;5.82;;;;;;;4.19;100.00;100709.25;5020498;28;20401;-60
2024/01/06 06:16:37;;;;;;;6.97;6.38;;;;;;;4.18;100.00;100704.94;5023871;28;20116;-60
2024/01/06 06:19:03;;;;;;;6.85;6.15;;;;;;;4.17;100.00;100708.47;5021971;28;20525;-60
2024/01/06 06:21:28;;;;;;;6.18;5.50;;;;;;;4.15;100.00;100718.22;5018910;28;20033;-60
2024/01/06 06:23:54;;;;;;;8.43;6.43;;;;;;;4.14;100.00;100721.78;5019978;28;20065;-60
2024/01/06 06:26:19;;;;;;;7.25;6.53;;;;;;;4.14;100.00;100731.44;5019846;28;20114;-60
2024/01/06 06:28:44;;;;;;;7.63;6.93;;;;;;;4.14;100.00;100732.28;5018979;28;20029;-60
2024/01/06 06:31:09;;;;;;;8.65;7.75;;;;;;;4.11;100.00;100732.44;5017497;28;20029;-60
2024/01/06 06:33:35;;;;;;;8.25;7.40;;;;;;;4.10;100.00;100737.78;5020020;28;20056;-60
2024/01/06 06:36:01;;;;;;;10.45;7.75;;;;;;;4.07;100.00;100744.91;5019773;28;20037;-60
2024/01/06 06:38:27;;;;;;;9.50;8.10;;;;;;;4.06;100.00;100745.84;5019899;28;20101;-60
2024/01/06 06:40:52;;;;;;;8.18;7.25;;;;;;;4.06;100.00;100750.22;5017392;28;20557;-60
2024/01/06 06:43:17;;;;;;;8.80;7.88;;;;;;;4.03;100.00;100750.38;5019472;28;20505;-60
2024/01/06 06:45:43;;;;;;;9.10;8.00;;;;;;;4.04;100.00;100747.69;5023287;28;20068;-59
2024/01/06 06:48:08;;;;;;;10.25;8.18;;;;;;;4.05;100.00;100756.44;5018069;28;20048;-61
2024/01/06 06:50:33;;;;;;;9.32;7.30;;;;;;;4.03;100.00;100758.25;5018109;28;20553;-60
2024/01/06 06:53:00;;;;;;;8.15;7.28;;;;;;;4.00;100.00;100758.44;5018463;28;20041;-60
2024/01/06 06:55:27;;;;;;;7.20;6.50;;;;;;;4.02;100.00;100764.47;5023859;28;20025;-60
2024/01/06 06:57:52;;;;;;;7.97;7.18;;;;;;;4.01;100.00;100776.78;5015196;28;20060;-60
2024/01/06 07:00:18;;;;;;;7.55;6.78;;;;;;;4.02;100.00;100783.72;5017596;28;20026;-60
2024/01/06 07:02:43;;;;;;;7.13;6.30;;;;;;;4.03;100.00;100782.78;5021212;28;20467;-60
2024/01/06 07:05:08;;;;;;;9.25;7.75;;;;;;;4.04;100.00;100784.47;5019629;28;20037;-60
2024/01/06 07:07:34;;;;;;;9.70;7.68;;;;;;;4.04;100.00;100797.63;5017299;28;20022;-60
2024/01/06 07:10:04;;;;;;;8.27;7.45;;;;;;;4.05;100.00;100801.94;5015453;28;20033;-61
2024/01/06 07:12:30;;;;;;;12.95;7.57;;;;;;;4.08;100.00;100803.59;5012415;28;20033;-60
2024/01/06 07:14:55;;;;;;;9.63;7.45;;;;;;;4.07;100.00;100805.34;5018223;28;20036;-60
2024/01/06 07:17:20;;;;;;;9.75;7.68;;;;;;;4.08;100.00;100803.59;5019051;28;20010;-61
2024/01/06 07:19:46;;;;;;;8.38;7.47;;;;;;;4.07;100.00;100810.59;5016218;28;20030;-60
2024/01/06 07:22:11;;;;;;;9.73;8.23;;;;;;;4.06;100.00;100816.81;5012051;28;20480;-61
2024/01/06 07:24:36;;;;;;;9.85;8.50;;;;;;;4.09;100.00;100821.03;5017318;28;20029;-61
2024/01/06 07:27:03;;;;;;;11.45;8.68;;;;;;;4.08;100.00;100822.00;5014837;28;20045;-60
2024/01/06 07:29:28;;;;;;;9.60;8.68;;;;;;;4.07;100.00;100829.00;5018611;28;20022;-59
2024/01/06 07:31:54;;;;;;;10.02;8.80;;;;;;;4.04;100.00;100825.69;5018401;28;20021;-61
2024/01/06 07:34:19;;;;;;;11.32;9.30;;;;;;;4.03;100.00;100823.97;5011907;28;20041;-59
2024/01/06 07:36:44;;;;;;;11.85;8.93;;;;;;;3.99;100.00;100819.81;5018138;28;20033;-61
2024/01/06 07:39:10;;;;;;;11.48;9.88;;;;;;;3.95;100.00;100824.38;5018477;28;20038;-59
2024/01/06 07:41:35;;;;;;;11.68;9.55;;;;;;;3.91;100.00;100832.47;5015182;28;20029;-60
2024/01/06 07:44:02;;;;;;;11.00;9.10;;;;;;;3.86;100.00;100827.44;5017046;28;20033;-59
2024/01/06 07:46:27;;;;;;;10.13;8.73;;;;;;;3.86;100.00;100836.19;5012638;28;20045;-60
2024/01/06 07:48:53;;;;;;;10.77;9.63;;;;;;;3.83;100.00;100838.97;5010103;28;20025;-60
2024/01/06 07:51:18;;;;;;;11.10;9.88;;;;;;;3.83;100.00;100848.59;5019460;28;20026;-59
2024/01/06 07:53:43;;;;;;;11.95;9.75;;;;;;;3.82;100.00;100850.38;5014090;28;20021;-59
2024/01/06 07:56:09;;;;;;;14.52;11.63;;;;;;;3.79;100.00;100852.31;5020316;28;20075;-60
2024/01/06 07:58:34;;;;;;;11.85;10.43;;;;;;;3.77;100.00;100855.00;5007877;28;20034;-60
2024/01/06 08:00:59;;;;;;;13.93;10.35;;;;;;;3.76;100.00;100853.28;5021147;28;20025;-60
2024/01/06 08:03:25;;;;;;;14.13;10.70;;;;;;;3.76;100.00;100863.81;5020697;28;20525;-60
2024/01/06 08:05:50;;;;;;;12.27;10.40;;;;;;;3.74;100.00;100857.78;5020760;28;20482;-59
2024/01/06 08:08:16;;;;;;;15.05;10.50;;;;;;;3.74;100.00;100867.44;5021296;28;20053;-59
2024/01/06 08:10:42;;;;;;;14.50;11.00;;;;;;;3.72;100.00;100871.94;5015246;28;20502;-60
2024/01/06 08:13:08;;;;;;;14.27;11.05;;;;;;;3.72;100.00;100887.69;5011316;28;20037;-59
2024/01/06 08:15:33;;;;;;;12.90;9.48;;;;;;;3.72;100.00;100885.06;5012875;28;20022;-60
2024/01/06 08:17:58;;;;;;;13.82;9.98;;;;;;;3.68;100.00;100890.47;5016297;28;20037;-59
2024/01/06 08:20:24;;;;;;;12.68;10.43;;;;;;;3.69;100.00;100892.13;5018224;28;20026;-60
2024/01/06 08:22:49;;;;;;;16.52;10.63;;;;;;;3.70;100.00;100898.25;5010692;28;20037;-60
2024/01/06 08:25:14;;;;;;;11.30;9.50;;;;;;;3.69;100.00;100896.56;5016075;28;20494;-59
2024/01/06 08:27:39;;;;;;;13.05;11.00;;;;;;;3.69;100.00;100899.19;5014859;28;20075;-59
2024/01/06 08:30:06;;;;;;;13.02;10.10;;;;;;;3.67;100.00;100898.41;5015372;28;20052;-59
2024/01/06 08:32:31;;;;;;;11.55;9.85;;;;;;;3.67;100.00;100901.03;5014277;28;20029;-59
2024/01/06 08:34:56;;;;;;;13.88;11.10;;;;;;;3.69;100.00;100905.28;5017209;28;20387;-61
2024/01/06 08:37:22;;;;;;;14.32;10.68;;;;;;;3.69;100.00;100909.69;5015972;28;20057;-60
2024/01/06 08:39:47;;;;;;;15.07;11.27;;;;;;;3.68;100.00;100921.09;5020520;28;20445;-61
2024/01/06 08:42:12;;;;;;;14.15;11.40;;;;;;;3.68;100.00;100921.09;5017938;28;20033;-60
2024/01/06 08:44:38;;;;;;;13.55;11.10;;;;;;;3.65;100.00;100926.53;5018585;28;20033;-59
2024/01/06 08:47:03;;;;;;;13.52;10.45;;;;;;;3.62;100.00;100924.88;5017862;28;20029;-60
2024/01/06 08:49:28;;;;;;;11.15;9.57;;;;;;;3.60;100.00;100944.28;5017643;28;20392;-60
2024/01/06 08:51:54;;;;;;;11.95;10.55;;;;;;;3.53;100.00;100935.81;5019596;28;20040;-60
2024/01/06 08:54:20;;;;;;;14.73;10.05;;;;;;;3.50;100.00;100946.47;5018434;28;20033;-60
2024/01/06 08:56:45;;;;;;;13.50;10.18;;;;;;;3.50;100.00;100951.72;5020386;28;20052;-61
2024/01/06 08:59:10;;;;;;;12.00;10.50;;;;;;;3.49;100.00;100952.63;5021142;28;20034;-60
2024/01/06 09:01:37;;;;;;;12.65;10.30;;;;;;;3.47;100.00;100959.72;5018241;28;20030;-60
2024/01/06 09:04:02;;;;;;;13.90;10.30;;;;;;;3.46;100.00;100960.63;5017826;28;20030;-60
2024/01/06 09:06:28;;;;;;;12.25;9.77;;;;;;;3.44;100.00;100962.47;5020524;28;20392;-60
2024/01/06 09:08:53;;;;;;;11.82;10.20;;;;;;;3.45;100.00;100962.41;5019353;28;20033;-60
2024/01/06 09:11:18;;;;;;;11.52;9.80;;;;;;;3.47;100.00;100965.81;5010590;28;20022;-60
2024/01/06 09:13:43;;;;;;;11.82;10.00;;;;;;;3.47;100.00;100971.06;5016990;28;20025;-60
2024/01/06 09:16:10;;;;;;;15.40;10.48;;;;;;;3.48;100.00;100974.53;5021616;28;20492;-59
2024/01/06 09:18:35;;;;;;;12.52;9.88;;;;;;;3.49;100.00;100979.72;5017024;28;20026;-58
2024/01/06 09:21:00;;;;;;;12.57;10.43;;;;;;;3.50;100.00;100980.59;5017105;28;20399;-60
2024/01/06 09:23:26;;;;;;;14.43;10.63;;;;;;;3.50;100.00;100988.47;5021506;28;20041;-61
2024/01/06 09:25:52;;;;;;;12.88;10.88;;;;;;;3.49;100.00;100989.38;5018748;28;20073;-60
2024/01/06 09:28:18;;;;;;;13.57;10.68;;;;;;;3.46;100.00;100995.63;5016941;28;20033;-60
2024/01/06 09:30:43;;;;;;;13.23;10.60;;;;;;;3.45;100.00;100993.94;5019311;28;20026;-60
2024/01/06 09:33:08;;;;;;;14.50;10.38;;;;;;;3.46;100.00;101002.66;5016407;28;20538;-60
2024/01/06 09:35:34;;;;;;;13.07;11.57;;;;;;;3.45;100.00;101001.81;5012589;28;20030;-60
2024/01/06 09:38:00;;;;;;;12.52;10.48;;;;;;;3.43;100.00;101005.41;5023530;28;20026;-60
2024/01/06 09:40:25;;;;;;;12.07;10.60;;;;;;;3.43;100.00;101011.53;5023482;28;20030;-59
2024/01/06 09:42:51;;;;;;;15.60;11.30;;;;;;;3.44;100.00;101015.00;5017896;28;20029;-60
2024/01/06 09:45:16;;;;;;;14.27;10.98;;;;;;;3.44;100.00;101021.09;5021924;28;20025;-60
2024/01/06 09:47:47;;;;;;;13.82;10.05;;;;;;;3.42;100.00;101020.31;5020652;28;20037;-60
2024/01/06 09:50:14;;;;;;;12.98;10.45;;;;;;;3.43;100.00;101023.78;5017908;28;20120;-60
2024/01/06 09:52:44;;;;;;;12.15;10.48;;;;;;;3.43;100.00;101035.16;5014956;28;20100;-60
2024/01/06 09:55:12;;;;;;;11.95;10.00;;;;;;;3.42;100.00;101033.44;5021756;28;20029;-60
2024/01/06 09:57:40;;;;;;;12.60;9.45;;;;;;;3.39;100.00;101044.06;5023138;28;20038;-60
2024/01/06 10:00:08;;;;;;;11.38;10.27;;;;;;;3.36;100.00;101052.09;5021197;28;20030;-59
2024/01/06 10:02:33;;;;;;;10.27;9.13;;;;;;;3.34;100.00;101041.66;5012688;28;20084;-60
2024/01/06 10:04:58;;;;;;;12.00;9.65;;;;;;;3.36;100.00;101052.09;5019688;28;20041;-59
2024/01/06 10:07:26;;;;;;;14.88;10.05;;;;;;;3.34;100.00;101057.41;5020764;28;20030;-60
2024/01/06 10:09:54;;;;;;;12.70;9.50;;;;;;;3.34;100.00;101057.41;5015545;28;20372;-59
2024/01/06 10:12:24;;;;;;;11.60;9.23;;;;;;;3.36;100.00;101065.22;5018844;28;20113;-59
2024/01/06 10:14:49;;;;;;;;;;;;;;;3.43;100.00;101068.44;5015467;28;20037;-59
2024/01/06 10:17:14;;;;;;;11.73;9.03;;;;;;;3.39;100.00;101075.59;5018078;28;20355;-60
2024/01/06 10:19:39;;;;;;;11.32;9.32;;;;;;;3.38;100.00;101073.91;5018523;28;20075;-59
2024/01/06 10:22:05;;;;;;;13.52;9.75;;;;;;;3.39;100.00;101075.59;5016892;28;20066;-60
2024/01/06 10:24:31;;;;;;;13.57;9.75;;;;;;;3.42;100.00;101074.63;5018604;28;20030;-60
2024/01/06 10:26:56;;;;;;;16.90;10.02;;;;;;;3.44;100.00;101078.03;5018506;28;20034;-60
2024/01/06 10:29:22;;;;;;;14.60;10.57;;;;;;;3.47;100.00;101081.38;5011627;28;20100;-60
2024/01/06 10:31:47;;;;;;;10.20;8.68;;;;;;;3.47;100.00;101076.09;5019893;28;20387;-60
2024/01/06 10:34:14;;;;;;;10.93;8.80;;;;;;;3.48;100.00;101080.47;5016227;28;20080;-60
2024/01/06 10:36:39;;;;;;;11.13;8.73;;;;;;;3.50;100.00;101077.75;5014255;28;20029;-59
2024/01/06 10:39:07;;;;;;;11.38;9.02;;;;;;;3.50;100.00;101083.88;5021036;28;20032;-59
2024/01/06 10:41:34;;;;;;;13.60;9.85;;;;;;;3.49;100.00;101086.56;5019074;28;20030;-59
2024/01/06 10:44:01;;;;;;;11.85;9.65;;;;;;;3.47;100.00;101080.53;5013727;28;20057;-59
2024/01/06 10:46:27;;;;;;;11.55;9.20;;;;;;;3.44;100.00;101086.75;5012473;28;20080;-60
2024/01/06 10:48:57;;;;;;;11.60;9.88;;;;;;;3.47;100.00;101093.66;5016669;28;20125;-58
2024/01/06 10:51:25;;;;;;;13.40;9.88;;;;;;;3.48;100.00;101087.47;5016556;28;20052;-60
2024/01/06 10:53:50;;;;;;;10.15;9.13;;;;;;;3.46;100.00;101098.03;5020737;28;20434;-59
2024/01/06 10:56:16;;;;;;;12.40;9.48;;;;;;;3.46;100.00;101098.03;5020568;28;20137;-59
2024/01/06 10:58:47;;;;;;;11.05;9.18;;;;;;;3.47;100.00;101097.13;5021331;28;20029;-59
2024/01/06 11:01:13;;;;;;;12.48;8.77;;;;;;;3.50;100.00;101098.78;5023041;28;20029;-60
2024/01/06 11:03:39;;;;;;;13.70;9.90;;;;;;;3.52;100.00;101097.78;5019819;28;20108;-59
2024/01/06 11:06:07;;;;;;;11.48;9.00;;;;;;;3.52;100.00;101092.50;5016880;28;20045;-60
2024/01/06 11:08:43;;;;;;;13.27;9.43;;;;;;;3.56;100.00;101103.75;5019041;28;20029;-59